SAS36A EHAM-ENGM
Flight info
| Callsign | SAS36A |
|---|---|
| Flight time | N/A |
| Altitude | 37000 |
| Route | NOPSU3W ANDIK Z733 KONOM DCT AMADA DCT PIPEX M609 RIPAM RIPAM4M |
| Aircraft | A20N/M-SDE2E3FGHIRWXY/LB1 |
Departure
| Time | 2026-05-06 10:28 |
|---|---|
| Airport | Amsterdam Airport Schiphol (EHAM) |
Arrival
| Time | N/A |
|---|---|
| Airport | Oslo-Gardermoen International Airport (ENGM) |
| Time | Latitude | Longitude | Altitude | Speed | Heading |
|---|---|---|---|---|---|
| 2026-05-06 10:04 | 52.30311 | 4.76056 | 0 ft | 0 kts | 238° |
| 2026-05-06 10:15 | 52.30315 | 4.76068 | 0 ft | 2 kts | 238° |
| 2026-05-06 10:15 | 52.30320 | 4.76081 | 0 ft | 2 kts | 235° |
| 2026-05-06 10:15 | 52.30331 | 4.76097 | 0 ft | 2 kts | 205° |
| 2026-05-06 10:15 | 52.30346 | 4.76103 | 0 ft | 2 kts | 180° |
| 2026-05-06 10:16 | 52.30361 | 4.76099 | 0 ft | 2 kts | 155° |
| 2026-05-06 10:16 | 52.30367 | 4.76093 | 0 ft | 1 kts | 144° |
| 2026-05-06 10:16 | 52.30370 | 4.76090 | 0 ft | 0 kts | 148° |
| 2026-05-06 10:24 | 52.30367 | 4.76092 | 0 ft | 3 kts | 147° |
| 2026-05-06 10:24 | 52.30277 | 4.76187 | 0 ft | 19 kts | 147° |
| 2026-05-06 10:24 | 52.30165 | 4.76185 | 0 ft | 19 kts | 238° |
| 2026-05-06 10:24 | 52.30096 | 4.76000 | 0 ft | 19 kts | 238° |
| 2026-05-06 10:25 | 52.30024 | 4.75812 | 0 ft | 19 kts | 238° |
| 2026-05-06 10:25 | 52.29949 | 4.75617 | 0 ft | 23 kts | 237° |
| 2026-05-06 10:25 | 52.29850 | 4.75360 | 0 ft | 27 kts | 240° |
| 2026-05-06 10:25 | 52.29896 | 4.75094 | 0 ft | 25 kts | 310° |
| 2026-05-06 10:26 | 52.30013 | 4.74876 | 0 ft | 25 kts | 313° |
| 2026-05-06 10:26 | 52.30124 | 4.74668 | 0 ft | 24 kts | 310° |
| 2026-05-06 10:26 | 52.30232 | 4.74465 | 0 ft | 23 kts | 311° |
| 2026-05-06 10:26 | 52.30332 | 4.74259 | 0 ft | 22 kts | 291° |
| 2026-05-06 10:27 | 52.30301 | 4.74027 | 0 ft | 21 kts | 224° |
| 2026-05-06 10:27 | 52.30197 | 4.73876 | 0 ft | 19 kts | 240° |
| 2026-05-06 10:27 | 52.30253 | 4.73735 | 0 ft | 13 kts | 0° |
| 2026-05-06 10:27 | 52.30325 | 4.73740 | 0 ft | 24 kts | 4° |
| 2026-05-06 10:28 | 52.30744 | 4.73777 | 0 ft | 94 kts | 3° |
| 2026-05-06 10:28 | 52.31600 | 4.73850 | 0 ft | 150 kts | 5° |
| 2026-05-06 10:28 | 52.32766 | 4.73944 | 304 ft | 172 kts | 4° |
| 2026-05-06 10:28 | 52.33897 | 4.74126 | 1051 ft | 165 kts | 17° |
| 2026-05-06 10:29 | 52.34915 | 4.74800 | 1837 ft | 158 kts | 31° |
| 2026-05-06 10:29 | 52.35887 | 4.75648 | 2133 ft | 165 kts | 26° |
| 2026-05-06 10:29 | 52.37004 | 4.76422 | 2502 ft | 183 kts | 24° |
| 2026-05-06 10:29 | 52.38218 | 4.77296 | 2866 ft | 202 kts | 34° |
| 2026-05-06 10:30 | 52.39368 | 4.78801 | 3299 ft | 220 kts | 40° |
| 2026-05-06 10:30 | 52.40580 | 4.80476 | 3774 ft | 238 kts | 40° |
| 2026-05-06 10:30 | 52.41871 | 4.82260 | 4437 ft | 248 kts | 40° |
| 2026-05-06 10:30 | 52.43186 | 4.84076 | 5256 ft | 252 kts | 40° |
| 2026-05-06 10:31 | 52.44514 | 4.85912 | 6063 ft | 256 kts | 40° |
| 2026-05-06 10:31 | 52.45873 | 4.87792 | 6846 ft | 260 kts | 40° |
| 2026-05-06 10:31 | 52.47260 | 4.89716 | 7655 ft | 265 kts | 40° |
| 2026-05-06 10:31 | 52.48664 | 4.91661 | 8426 ft | 270 kts | 40° |
| 2026-05-06 10:32 | 52.50096 | 4.93647 | 9197 ft | 274 kts | 40° |
| 2026-05-06 10:32 | 52.51546 | 4.95659 | 9947 ft | 279 kts | 40° |
| 2026-05-06 10:32 | 52.53051 | 4.97749 | 10527 ft | 290 kts | 39° |
| 2026-05-06 10:32 | 52.54650 | 4.99970 | 10922 ft | 308 kts | 39° |
| 2026-05-06 10:33 | 52.56309 | 5.02278 | 11413 ft | 320 kts | 39° |
| 2026-05-06 10:33 | 52.58019 | 5.04661 | 12110 ft | 325 kts | 39° |
| 2026-05-06 10:33 | 52.59740 | 5.07061 | 12816 ft | 330 kts | 39° |
| 2026-05-06 10:33 | 52.61486 | 5.09501 | 13469 ft | 335 kts | 39° |
| 2026-05-06 10:34 | 52.63250 | 5.11969 | 14134 ft | 339 kts | 39° |
| 2026-05-06 10:34 | 52.65063 | 5.14507 | 14821 ft | 343 kts | 39° |
| 2026-05-06 10:34 | 52.66869 | 5.17036 | 15487 ft | 347 kts | 39° |
| 2026-05-06 10:34 | 52.68707 | 5.19615 | 16146 ft | 350 kts | 39° |
| 2026-05-06 10:35 | 52.70571 | 5.22233 | 16798 ft | 354 kts | 39° |
| 2026-05-06 10:35 | 52.72455 | 5.24795 | 17401 ft | 357 kts | 34° |
| 2026-05-06 10:35 | 52.74621 | 5.26760 | 17998 ft | 359 kts | 20° |
| 2026-05-06 10:35 | 52.77032 | 5.27860 | 18618 ft | 361 kts | 9° |
| 2026-05-06 10:36 | 52.79507 | 5.28491 | 19200 ft | 365 kts | 7° |
| 2026-05-06 10:36 | 52.82038 | 5.29068 | 19742 ft | 369 kts | 7° |
| 2026-05-06 10:36 | 52.84584 | 5.29662 | 20262 ft | 373 kts | 7° |
| 2026-05-06 10:36 | 52.87159 | 5.30281 | 20796 ft | 377 kts | 7° |
| 2026-05-06 10:37 | 52.89770 | 5.30918 | 21332 ft | 381 kts | 7° |
| 2026-05-06 10:37 | 52.92398 | 5.31566 | 21844 ft | 385 kts | 7° |
| 2026-05-06 10:37 | 52.95038 | 5.32220 | 22331 ft | 389 kts | 7° |
| 2026-05-06 10:37 | 52.97724 | 5.32887 | 22813 ft | 393 kts | 7° |
| 2026-05-06 10:38 | 53.00418 | 5.33558 | 23287 ft | 396 kts | 7° |
| 2026-05-06 10:38 | 53.03157 | 5.34241 | 23751 ft | 400 kts | 7° |
| 2026-05-06 10:38 | 53.05879 | 5.34921 | 24235 ft | 403 kts | 7° |
| 2026-05-06 10:38 | 53.08680 | 5.35620 | 24723 ft | 406 kts | 7° |
| 2026-05-06 10:39 | 53.11449 | 5.36313 | 25184 ft | 409 kts | 7° |
| 2026-05-06 10:39 | 53.14287 | 5.37022 | 25626 ft | 412 kts | 7° |
| 2026-05-06 10:39 | 53.17098 | 5.37725 | 26068 ft | 415 kts | 7° |
| 2026-05-06 10:39 | 53.19942 | 5.38440 | 26492 ft | 418 kts | 7° |
| 2026-05-06 10:40 | 53.22849 | 5.39172 | 26891 ft | 421 kts | 7° |
| 2026-05-06 10:40 | 53.25748 | 5.39904 | 27285 ft | 424 kts | 7° |
| 2026-05-06 10:40 | 53.28652 | 5.40638 | 27675 ft | 427 kts | 8° |
| 2026-05-06 10:40 | 53.31571 | 5.41377 | 28046 ft | 429 kts | 7° |
| 2026-05-06 10:41 | 53.34524 | 5.42126 | 28411 ft | 432 kts | 8° |
| 2026-05-06 10:41 | 53.37520 | 5.42887 | 28758 ft | 435 kts | 8° |
| 2026-05-06 10:41 | 53.40512 | 5.43648 | 29104 ft | 438 kts | 8° |
| 2026-05-06 10:41 | 53.43522 | 5.44416 | 29446 ft | 440 kts | 8° |
| 2026-05-06 10:42 | 53.46546 | 5.45190 | 29780 ft | 443 kts | 8° |
| 2026-05-06 10:42 | 53.49555 | 5.45962 | 30217 ft | 442 kts | 8° |
| 2026-05-06 10:42 | 53.52589 | 5.46740 | 30593 ft | 443 kts | 8° |
| 2026-05-06 10:42 | 53.55665 | 5.47529 | 30884 ft | 446 kts | 8° |
| 2026-05-06 10:43 | 53.58691 | 5.48308 | 31164 ft | 448 kts | 8° |
| 2026-05-06 10:43 | 53.61761 | 5.49271 | 31545 ft | 448 kts | 12° |
| 2026-05-06 10:43 | 53.64765 | 5.50531 | 31974 ft | 446 kts | 15° |
| 2026-05-06 10:44 | 53.70607 | 5.53820 | 32775 ft | 443 kts | 19° |
| 2026-05-06 10:44 | 53.73483 | 5.55579 | 33113 ft | 442 kts | 19° |
| 2026-05-06 10:44 | 53.76375 | 5.57356 | 33443 ft | 442 kts | 19° |
| 2026-05-06 10:44 | 53.79243 | 5.59113 | 33779 ft | 441 kts | 19° |
| 2026-05-06 10:45 | 53.82127 | 5.60877 | 34110 ft | 440 kts | 19° |
| 2026-05-06 10:45 | 53.84981 | 5.62624 | 34426 ft | 439 kts | 19° |
| 2026-05-06 10:45 | 53.87867 | 5.64388 | 34708 ft | 439 kts | 19° |
| 2026-05-06 10:45 | 53.90700 | 5.66125 | 34965 ft | 438 kts | 19° |
| 2026-05-06 10:46 | 53.93558 | 5.67891 | 35200 ft | 437 kts | 19° |
| 2026-05-06 10:46 | 53.96425 | 5.69663 | 35348 ft | 439 kts | 19° |
| 2026-05-06 10:46 | 53.99262 | 5.71414 | 35464 ft | 441 kts | 19° |
| 2026-05-06 10:46 | 54.02145 | 5.73192 | 35580 ft | 442 kts | 19° |
| 2026-05-06 10:47 | 54.05046 | 5.74981 | 35708 ft | 443 kts | 19° |
| 2026-05-06 10:47 | 54.07910 | 5.76751 | 35847 ft | 444 kts | 19° |